Time;durP1;ratioP1;P1;durP2;ratioP2;P2;SDS_P1;SDS_P2;PMS_P1;PMS_P2;Temp;Humidity;BMP_temperature;BMP_pressure;BME280_temperature;BME280_humidity;BME280_pressure;Samples;Min_cycle;Max_cycle;Signal;HPM_P1;HPM_P2
2021/12/05 00:19:43;;;;;;;8.80;2.97;;;;;;;;;;5014927;28;20034;-82
2021/12/05 00:22:22;;;;;;;8.10;3.03;;;;;;;;;;5014706;28;20041;-82
2021/12/05 00:24:51;;;;;;;11.15;3.22;;;;;;;;;;5014664;28;20052;-83
2021/12/05 00:27:23;;;;;;;11.13;3.17;;;;;;;;;;5014840;28;20033;-81
2021/12/05 00:45:49;;;;;;;6.80;2.78;;;;;;;;;;5014303;28;20034;-81
2021/12/05 01:04:31;;;;;;;11.15;2.90;;;;;;;;;;5014377;28;20033;-83
2021/12/05 01:07:56;;;;;;;10.32;2.60;;;;;;;;;;5014077;28;20041;-82
2021/12/05 01:09:53;;;;;;;8.30;2.35;;;;;;;;;;5003437;28;20042;-82
2021/12/05 01:15:09;;;;;;;9.10;2.33;;;;;;;;;;5014404;28;20029;-83
2021/12/05 01:18:03;;;;;;;9.85;3.22;;;;;;;;;;5014129;28;20037;-82
2021/12/05 01:20:33;;;;;;;8.45;1.92;;;;;;;;;;5013519;28;20037;-82
2021/12/05 01:23:15;;;;;;;10.15;2.25;;;;;;;;;;5013833;28;20033;-84
2021/12/05 01:25:46;;;;;;;10.05;2.10;;;;;;;;;;5013791;28;20030;-83
2021/12/05 01:28:25;;;;;;;11.52;2.20;;;;;;;;;;5012743;28;20517;-83
2021/12/05 01:38:29;;;;;;;8.05;2.25;;;;;;;;;;5013509;28;20029;-83
2021/12/05 02:08:06;;;;;;;10.30;2.60;;;;;;;;;;5014654;28;20371;-81
2021/12/05 02:10:52;;;;;;;12.23;2.42;;;;;;;;;;5023622;28;20034;-81
2021/12/05 02:30:58;;;;;;;8.10;2.80;;;;;;;;;;5011885;28;20030;-81
2021/12/05 02:45:47;;;;;;;8.95;2.80;;;;;;;;;;5055537;23;20045;-82
2021/12/05 02:48:14;;;;;;;8.98;2.75;;;;;;;;;;5052604;28;20442;-82
2021/12/05 02:50:42;;;;;;;9.52;2.92;;;;;;;;;;5034607;28;20055;-82
2021/12/05 02:53:20;;;;;;;14.95;2.97;;;;;;;;;;5052701;28;20394;-82
2021/12/05 02:55:49;;;;;;;13.27;2.90;;;;;;;;;;5052587;28;20033;-82
2021/12/05 03:01:07;;;;;;;9.00;2.50;;;;;;;;;;5058883;28;20064;-82
2021/12/05 03:03:34;;;;;;;7.72;2.65;;;;;;;;;;5052742;28;20060;-81
2021/12/05 03:06:11;;;;;;;14.88;2.97;;;;;;;;;;5050714;28;20120;-82
2021/12/05 03:08:37;;;;;;;7.97;2.50;;;;;;;;;;5036416;28;20052;-82
2021/12/05 03:11:05;;;;;;;9.10;2.90;;;;;;;;;;5052554;28;20029;-81
2021/12/05 03:13:37;;;;;;;11.55;2.88;;;;;;;;;;5052586;28;20033;-82
2021/12/05 03:16:04;;;;;;;10.00;2.83;;;;;;;;;;5052598;28;20037;-82
2021/12/05 03:18:30;;;;;;;12.63;2.55;;;;;;;;;;5051805;28;20394;-82
2021/12/05 03:20:58;;;;;;;10.20;2.75;;;;;;;;;;5051975;28;20044;-82
2021/12/05 03:23:26;;;;;;;11.93;2.22;;;;;;;;;;5052108;28;20037;-81
2021/12/05 03:25:52;;;;;;;10.23;2.28;;;;;;;;;;5051914;28;20045;-82
2021/12/05 03:28:18;;;;;;;7.30;2.40;;;;;;;;;;5052013;28;20451;-82
2021/12/05 03:30:45;;;;;;;9.50;2.47;;;;;;;;;;5051814;28;20041;-82
2021/12/05 03:33:11;;;;;;;10.65;2.60;;;;;;;;;;5034233;28;20378;-82
2021/12/05 03:35:37;;;;;;;7.63;2.10;;;;;;;;;;5051387;28;20056;-83
2021/12/05 03:38:04;;;;;;;10.60;2.33;;;;;;;;;;5034238;28;20041;-83
2021/12/05 03:40:31;;;;;;;12.45;2.60;;;;;;;;;;5034548;28;20044;-83
2021/12/05 03:42:59;;;;;;;7.03;2.03;;;;;;;;;;5017375;28;20037;-82
2021/12/05 03:45:30;;;;;;;6.20;2.00;;;;;;;;;;5051307;28;20052;-80
2021/12/05 03:47:57;;;;;;;7.68;2.30;;;;;;;;;;5051383;28;20041;-81
2021/12/05 03:50:25;;;;;;;8.15;2.40;;;;;;;;;;5051220;28;20040;-81
2021/12/05 03:52:51;;;;;;;9.40;2.10;;;;;;;;;;5050217;28;20481;-81
2021/12/05 03:55:17;;;;;;;8.70;2.50;;;;;;;;;;5033660;28;20040;-81
2021/12/05 03:57:43;;;;;;;7.13;2.20;;;;;;;;;;5051414;28;20049;-81
2021/12/05 04:00:41;;;;;;;8.00;2.45;;;;;;;;;;5052000;28;20029;-81
2021/12/05 04:03:10;;;;;;;8.95;2.40;;;;;;;;;;5036533;28;20044;-81
2021/12/05 04:05:37;;;;;;;7.05;2.42;;;;;;;;;;5051195;28;20037;-81
2021/12/05 04:08:09;;;;;;;9.88;2.40;;;;;;;;;;5051166;28;20064;-81
2021/12/05 04:10:37;;;;;;;7.70;2.35;;;;;;;;;;5051766;28;20044;-81
2021/12/05 04:13:04;;;;;;;6.35;2.03;;;;;;;;;;5051426;28;20059;-81
2021/12/05 04:15:31;;;;;;;7.18;2.20;;;;;;;;;;5051053;28;20048;-81
2021/12/05 04:17:57;;;;;;;5.88;2.53;;;;;;;;;;5033595;28;20040;-81
2021/12/05 04:20:24;;;;;;;12.75;2.30;;;;;;;;;;5052092;28;20378;-81
2021/12/05 04:22:50;;;;;;;8.73;2.15;;;;;;;;;;5052034;28;20033;-82
2021/12/05 04:25:17;;;;;;;8.60;2.50;;;;;;;;;;5052064;28;20489;-82
2021/12/05 04:27:45;;;;;;;7.80;2.20;;;;;;;;;;5051413;28;20048;-82
2021/12/05 04:30:13;;;;;;;6.25;2.03;;;;;;;;;;5050717;28;20033;-83
2021/12/05 04:32:38;;;;;;;6.32;2.00;;;;;;;;;;5051211;28;20494;-81
2021/12/05 04:35:05;;;;;;;6.18;2.20;;;;;;;;;;5050558;28;20043;-83
2021/12/05 04:37:31;;;;;;;7.05;2.20;;;;;;;;;;5033169;28;20029;-81
2021/12/05 04:39:57;;;;;;;9.38;2.22;;;;;;;;;;5050829;28;20067;-82
2021/12/05 04:42:24;;;;;;;10.55;2.13;;;;;;;;;;5050933;28;20366;-81
2021/12/05 04:44:50;;;;;;;5.88;2.17;;;;;;;;;;5051256;28;20478;-81
2021/12/05 04:47:16;;;;;;;8.88;2.45;;;;;;;;;;5033417;28;20425;-82
2021/12/05 04:49:44;;;;;;;11.00;2.83;;;;;;;;;;5050980;28;20037;-81
2021/12/05 04:52:11;;;;;;;7.57;2.40;;;;;;;;;;5033715;28;20032;-81
2021/12/05 04:54:37;;;;;;;9.38;2.65;;;;;;;;;;5050959;28;20033;-82
2021/12/05 04:57:04;;;;;;;9.50;2.97;;;;;;;;;;5050950;28;20041;-82
2021/12/05 04:59:34;;;;;;;17.88;3.72;;;;;;;;;;5051659;28;20017;-82
2021/12/05 05:02:01;;;;;;;6.35;2.40;;;;;;;;;;5052873;28;20446;-82
2021/12/05 05:04:29;;;;;;;9.98;2.70;;;;;;;;;;5055003;28;20497;-82
2021/12/05 05:07:00;;;;;;;9.05;3.00;;;;;;;;;;5055230;28;20371;-82
2021/12/05 05:09:27;;;;;;;14.60;3.20;;;;;;;;;;5056414;28;20040;-82
2021/12/05 05:11:53;;;;;;;11.63;3.20;;;;;;;;;;5055099;28;20056;-83
2021/12/05 05:14:18;;;;;;;10.15;3.20;;;;;;;;;;5055190;28;20481;-83
2021/12/05 05:16:47;;;;;;;10.80;2.97;;;;;;;;;;5037497;28;20498;-82
2021/12/05 05:19:15;;;;;;;10.05;3.25;;;;;;;;;;5054945;28;20041;-83
2021/12/05 05:21:58;;;;;;;7.80;3.03;;;;;;;;;;5054982;28;20045;-82
2021/12/05 05:24:50;;;;;;;11.07;3.03;;;;;;;;;;5055767;28;20489;-83
2021/12/05 05:27:35;;;;;;;9.20;3.17;;;;;;;;;;5055853;28;20037;-82
2021/12/05 05:43:34;;;;;;;6.82;2.53;;;;;;;;;;5055668;28;20028;-82
2021/12/05 05:46:07;;;;;;;9.10;2.25;;;;;;;;;;5054102;28;20513;-83
2021/12/05 05:48:40;;;;;;;9.25;2.63;;;;;;;;;;5054039;28;20406;-83
2021/12/05 05:51:08;;;;;;;9.40;2.83;;;;;;;;;;5054684;28;20041;-83
2021/12/05 05:53:35;;;;;;;7.50;2.60;;;;;;;;;;5054808;28;20029;-83
2021/12/05 05:56:02;;;;;;;9.90;2.83;;;;;;;;;;5055312;28;20032;-83
2021/12/05 05:58:48;;;;;;;7.97;2.65;;;;;;;;;;5055571;28;20360;-83
2021/12/05 06:04:11;;;;;;;8.20;2.67;;;;;;;;;;5017913;28;20046;-82
2021/12/05 06:06:38;;;;;;;7.28;2.78;;;;;;;;;;5055178;28;20058;-82
2021/12/05 06:09:05;;;;;;;9.75;3.00;;;;;;;;;;5054137;28;20533;-83
2021/12/05 06:11:31;;;;;;;7.10;2.80;;;;;;;;;;5054922;28;20367;-83
2021/12/05 06:13:56;;;;;;;14.10;4.05;;;;;;;;;;5054115;28;20037;-83
2021/12/05 06:16:23;;;;;;;8.27;2.78;;;;;;;;;;5052668;28;20033;-83
2021/12/05 06:18:48;;;;;;;9.07;2.80;;;;;;;;;;5053661;28;20061;-83
2021/12/05 06:21:15;;;;;;;10.45;3.30;;;;;;;;;;5053431;28;20043;-83
2021/12/05 06:23:42;;;;;;;9.90;2.92;;;;;;;;;;5053618;28;20047;-83
2021/12/05 06:26:12;;;;;;;9.77;2.90;;;;;;;;;;5053494;28;20048;-83
2021/12/05 06:28:44;;;;;;;12.10;3.20;;;;;;;;;;5055507;28;20029;-83
2021/12/05 06:47:11;;;;;;;10.02;3.00;;;;;;;;;;5055354;28;20033;-84
2021/12/05 06:49:37;;;;;;;11.07;3.50;;;;;;;;;;5054671;28;20041;-84
2021/12/05 06:52:05;;;;;;;9.85;2.97;;;;;;;;;;5055448;28;20032;-82
2021/12/05 06:54:30;;;;;;;8.05;3.08;;;;;;;;;;5055236;28;20039;-83
2021/12/05 06:56:56;;;;;;;10.27;3.15;;;;;;;;;;5055584;28;20033;-83
2021/12/05 06:59:22;;;;;;;6.45;2.80;;;;;;;;;;5055555;28;20470;-83
2021/12/05 07:01:48;;;;;;;10.20;3.40;;;;;;;;;;5055740;28;20031;-83
2021/12/05 07:04:42;;;;;;;9.50;4.32;;;;;;;;;;5057998;28;20036;-83
2021/12/05 07:07:01;;;;;;;7.15;3.55;;;;;;;;;;5054550;28;20040;-85
2021/12/05 07:09:28;;;;;;;11.07;3.65;;;;;;;;;;5055641;28;20029;-84
2021/12/05 07:19:35;;;;;;;14.07;6.00;;;;;;;;;;5053543;28;20515;-82
2021/12/05 07:22:13;;;;;;;12.85;4.32;;;;;;;;;;5054327;28;20036;-83
2021/12/05 07:25:03;;;;;;;7.75;2.80;;;;;;;;;;5035571;28;20055;-84
2021/12/05 07:43:57;;;;;;;7.03;2.80;;;;;;;;;;5058430;28;20459;-83
2021/12/05 07:46:26;;;;;;;51.97;23.45;;;;;;;;;;5052996;28;20124;-84
2021/12/05 07:48:52;;;;;;;24.13;9.50;;;;;;;;;;5055505;28;20047;-83
2021/12/05 07:54:12;;;;;;;25.80;10.30;;;;;;;;;;5052545;28;20032;-84
2021/12/05 07:57:03;;;;;;;35.33;15.10;;;;;;;;;;5052039;28;20045;-84
2021/12/05 08:16:00;;;;;;;11.77;7.22;;;;;;;;;;5043590;28;20029;-82
2021/12/05 08:18:27;;;;;;;13.63;3.40;;;;;;;;;;5053074;28;20036;-83
2021/12/05 08:20:54;;;;;;;8.93;4.88;;;;;;;;;;5035653;28;20366;-78
2021/12/05 08:24:20;;;;;;;7.75;3.40;;;;;;;;;;5063875;27;20606;-79
2021/12/05 08:26:49;;;;;;;14.10;3.60;;;;;;;;;;5029089;28;20045;-82
2021/12/05 08:29:19;;;;;;;7.10;3.45;;;;;;;;;;5035702;28;20399;-82
2021/12/05 08:37:50;;;;;;;11.80;6.13;;;;;;;;;;5011295;28;20033;-81
2021/12/05 09:30:56;;;;;;;5.47;2.30;;;;;;;;;;5038796;28;20030;-82
2021/12/05 09:39:45;;;;;;;7.40;2.13;;;;;;;;;;5025672;28;20038;-87
2021/12/05 10:11:46;;;;;;;4.13;1.77;;;;;;;;;;5016151;28;20030;-85
2021/12/05 10:14:43;;;;;;;7.22;1.90;;;;;;;;;;5018868;28;20033;-85
2021/12/05 10:34:32;;;;;;;8.30;2.13;;;;;;;;;;5018807;28;20041;-85
2021/12/05 10:37:10;;;;;;;8.30;1.90;;;;;;;;;;5028032;28;20029;-77
2021/12/05 10:39:37;;;;;;;6.70;2.13;;;;;;;;;;5013804;28;20034;-79
2021/12/05 10:42:34;;;;;;;6.65;2.50;;;;;;;;;;5012627;28;20042;-77
2021/12/05 10:45:00;;;;;;;5.93;2.45;;;;;;;;;;5017573;28;20057;-78
2021/12/05 10:47:39;;;;;;;7.45;2.22;;;;;;;;;;5024205;28;21293;-86
2021/12/05 10:50:30;;;;;;;5.95;2.13;;;;;;;;;;5010591;28;20045;-86
2021/12/05 10:53:20;;;;;;;5.67;2.07;;;;;;;;;;5019197;28;20038;-87
2021/12/05 10:55:55;;;;;;;5.10;1.85;;;;;;;;;;5018677;28;20037;-85
2021/12/05 10:58:23;;;;;;;4.90;1.90;;;;;;;;;;5016166;28;20039;-84
2021/12/05 11:01:03;;;;;;;6.35;2.35;;;;;;;;;;5007070;28;20033;-82
2021/12/05 11:03:29;;;;;;;4.38;1.73;;;;;;;;;;5005089;28;20045;-86
2021/12/05 11:05:55;;;;;;;2.97;1.40;;;;;;;;;;5002844;28;20043;-83
2021/12/05 11:08:36;;;;;;;4.65;1.85;;;;;;;;;;5006604;28;20097;-84
2021/12/05 11:11:09;;;;;;;5.43;2.13;;;;;;;;;;5002654;28;20049;-80
2021/12/05 11:13:37;;;;;;;4.80;1.73;;;;;;;;;;4995928;28;20053;-79
2021/12/05 11:16:38;;;;;;;5.18;2.03;;;;;;;;;;5007380;28;20042;-79
2021/12/05 11:19:22;;;;;;;5.53;1.85;;;;;;;;;;4999340;28;20495;-79
2021/12/05 11:22:04;;;;;;;4.35;1.90;;;;;;;;;;5010083;28;20044;-79
2021/12/05 11:24:44;;;;;;;3.83;1.70;;;;;;;;;;5011845;23;20045;-79
2021/12/05 11:27:40;;;;;;;5.38;1.80;;;;;;;;;;5011069;28;20030;-81
2021/12/05 11:30:31;;;;;;;5.40;2.20;;;;;;;;;;5006516;28;20044;-78
2021/12/05 11:33:21;;;;;;;6.25;1.73;;;;;;;;;;5009326;28;20042;-80
2021/12/05 11:35:52;;;;;;;5.70;1.90;;;;;;;;;;5018756;28;20036;-81
2021/12/05 11:38:19;;;;;;;;;;;;;;;;;;5016000;28;20376;-80
2021/12/05 11:40:47;;;;;;;7.32;1.90;;;;;;;;;;5011901;28;19929;-82
2021/12/05 11:43:22;;;;;;;8.65;4.10;;;;;;;;;;5002972;28;20045;-80
2021/12/05 11:46:07;;;;;;;8.00;2.90;;;;;;;;;;5025594;28;20033;-79
2021/12/05 11:48:39;;;;;;;5.05;1.80;;;;;;;;;;5012625;28;20042;-79
2021/12/05 11:51:27;;;;;;;5.07;1.95;;;;;;;;;;5013897;28;20038;-79
2021/12/05 11:54:08;;;;;;;3.28;1.40;;;;;;;;;;5009174;28;20046;-81
2021/12/05 11:56:34;;;;;;;3.47;1.42;;;;;;;;;;5011090;28;20045;-82
2021/12/05 11:59:30;;;;;;;4.80;1.50;;;;;;;;;;4999807;28;20030;-82
2021/12/05 12:02:13;;;;;;;4.10;1.50;;;;;;;;;;5004947;28;20049;-84
2021/12/05 12:04:47;;;;;;;7.03;1.67;;;;;;;;;;5005629;28;20495;-81
2021/12/05 12:07:24;;;;;;;3.08;1.75;;;;;;;;;;5010683;28;20045;-83
2021/12/05 12:09:53;;;;;;;5.15;1.65;;;;;;;;;;4999024;28;20021;-82
2021/12/05 12:12:20;;;;;;;3.83;1.40;;;;;;;;;;4998611;28;20094;-83
2021/12/05 12:14:46;;;;;;;5.20;1.45;;;;;;;;;;5004503;28;20025;-84
2021/12/05 12:17:16;;;;;;;4.97;2.08;;;;;;;;;;4998435;28;20038;-84
2021/12/05 12:19:45;;;;;;;5.68;2.08;;;;;;;;;;5008343;28;20057;-83
2021/12/05 12:22:12;;;;;;;4.22;1.60;;;;;;;;;;5002712;28;20035;-82
2021/12/05 12:24:40;;;;;;;5.28;2.00;;;;;;;;;;5003653;28;20053;-82
2021/12/05 12:27:08;;;;;;;4.18;2.10;;;;;;;;;;4998189;28;20041;-81
2021/12/05 12:29:35;;;;;;;6.53;2.75;;;;;;;;;;4997946;28;20043;-84
2021/12/05 12:32:11;;;;;;;15.05;6.60;;;;;;;;;;4990205;28;20042;-83
2021/12/05 12:34:37;;;;;;;94.90;42.03;;;;;;;;;;5005144;28;20042;-83
2021/12/05 12:37:05;;;;;;;29.60;13.73;;;;;;;;;;5005944;28;20047;-82
2021/12/05 12:39:38;;;;;;;19.27;8.95;;;;;;;;;;5012960;28;20042;-84
2021/12/05 12:42:23;;;;;;;5.32;2.50;;;;;;;;;;5000674;28;20038;-85
2021/12/05 12:44:57;;;;;;;14.50;4.95;;;;;;;;;;4994078;28;20050;-86
2021/12/05 12:47:45;;;;;;;32.38;17.25;;;;;;;;;;4992932;28;20392;-87
2021/12/05 12:50:26;;;;;;;21.05;12.90;;;;;;;;;;4992359;28;20042;-86
2021/12/05 12:53:10;;;;;;;;;;;;;;;;;;4993744;28;20042;-85
2021/12/05 12:55:39;;;;;;;2.83;1.73;;;;;;;;;;4993529;28;19914;-87
2021/12/05 12:58:08;;;;;;;7.90;4.05;;;;;;;;;;4993737;28;20042;-84
2021/12/05 13:00:42;;;;;;;5.97;3.00;;;;;;;;;;4992821;28;20061;-86
2021/12/05 13:03:14;;;;;;;4.85;2.50;;;;;;;;;;4991580;28;20050;-86
2021/12/05 13:11:23;;;;;;;3.70;1.85;;;;;;;;;;4976572;28;20038;-86
2021/12/05 13:14:05;;;;;;;4.15;1.95;;;;;;;;;;4995324;28;20038;-87
2021/12/05 13:16:35;;;;;;;3.30;1.85;;;;;;;;;;5008076;28;20038;-84
2021/12/05 13:19:22;;;;;;;2.47;1.48;;;;;;;;;;5003219;28;20041;-89
2021/12/05 13:21:52;;;;;;;1.90;1.30;;;;;;;;;;4995526;28;20042;-87
2021/12/05 13:24:25;;;;;;;3.65;1.30;;;;;;;;;;4993219;28;20042;-86
2021/12/05 13:27:02;;;;;;;4.43;1.80;;;;;;;;;;4982767;28;20042;-86
2021/12/05 13:29:32;;;;;;;3.38;1.40;;;;;;;;;;4994110;28;20077;-89
2021/12/05 13:32:05;;;;;;;5.32;1.70;;;;;;;;;;4997939;28;20034;-86
2021/12/05 13:34:33;;;;;;;2.28;1.35;;;;;;;;;;4992717;28;20050;-89
2021/12/05 13:37:19;;;;;;;3.90;1.52;;;;;;;;;;4994706;28;20029;-85
2021/12/05 13:39:53;;;;;;;3.58;1.90;;;;;;;;;;4994670;28;20049;-88
2021/12/05 13:42:46;;;;;;;4.32;2.20;;;;;;;;;;4994825;28;20468;-87
2021/12/05 13:45:17;;;;;;;4.88;2.00;;;;;;;;;;4993898;28;20290;-88
2021/12/05 13:48:08;;;;;;;6.18;1.70;;;;;;;;;;4990529;28;20030;-87
2021/12/05 13:50:42;;;;;;;3.78;1.60;;;;;;;;;;4998335;28;20027;-86
2021/12/05 13:53:08;;;;;;;2.45;1.55;;;;;;;;;;4997840;28;20061;-84
2021/12/05 13:56:03;;;;;;;2.55;1.40;;;;;;;;;;4997848;28;20026;-85
2021/12/05 13:58:41;;;;;;;4.18;1.50;;;;;;;;;;4993440;28;20038;-84
2021/12/05 14:01:18;;;;;;;3.55;1.20;;;;;;;;;;4997144;28;20049;-85
2021/12/05 14:03:49;;;;;;;4.10;1.88;;;;;;;;;;4999720;28;20038;-87
2021/12/05 14:06:34;;;;;;;3.83;1.70;;;;;;;;;;4998766;28;20515;-86
2021/12/05 14:09:10;;;;;;;3.22;1.65;;;;;;;;;;4996589;28;20030;-85
2021/12/05 14:11:43;;;;;;;1.90;1.30;;;;;;;;;;4997561;28;20042;-81
2021/12/05 14:14:10;;;;;;;3.33;1.20;;;;;;;;;;4997637;28;20050;-83
2021/12/05 14:16:40;;;;;;;4.25;1.60;;;;;;;;;;4996070;28;20046;-83
2021/12/05 14:19:09;;;;;;;3.40;1.50;;;;;;;;;;4992671;28;20428;-82
2021/12/05 14:21:46;;;;;;;3.20;1.40;;;;;;;;;;4991750;28;20047;-82
2021/12/05 14:24:14;;;;;;;6.78;1.63;;;;;;;;;;4990397;28;20404;-85
2021/12/05 14:26:40;;;;;;;3.72;1.83;;;;;;;;;;4994447;28;20041;-84
2021/12/05 14:29:11;;;;;;;2.28;1.30;;;;;;;;;;4991468;28;20408;-85
2021/12/05 14:31:42;;;;;;;4.60;1.55;;;;;;;;;;4991190;28;20046;-86
2021/12/05 14:34:09;;;;;;;4.05;1.88;;;;;;;;;;4991132;28;20046;-85
2021/12/05 14:36:42;;;;;;;4.13;1.80;;;;;;;;;;4991964;28;20034;-85
2021/12/05 14:39:19;;;;;;;4.10;1.90;;;;;;;;;;4996707;28;20034;-83
2021/12/05 14:41:48;;;;;;;7.63;2.20;;;;;;;;;;4991753;28;20037;-84
2021/12/05 14:44:15;;;;;;;5.63;1.80;;;;;;;;;;4992550;28;20190;-84
2021/12/05 14:46:47;;;;;;;6.28;2.35;;;;;;;;;;4991709;28;20408;-84
2021/12/05 14:49:13;;;;;;;5.10;2.40;;;;;;;;;;4996572;28;20400;-84
2021/12/05 14:51:43;;;;;;;57.53;34.20;;;;;;;;;;4994671;28;20038;-82
2021/12/05 14:54:18;;;;;;;19.77;12.80;;;;;;;;;;4996682;28;20045;-83
2021/12/05 14:56:46;;;;;;;9.88;5.50;;;;;;;;;;4996171;28;20396;-85
2021/12/05 14:59:14;;;;;;;7.78;4.20;;;;;;;;;;4997025;28;20030;-87
2021/12/05 15:01:46;;;;;;;11.88;5.40;;;;;;;;;;4994221;28;20053;-86
2021/12/05 15:04:17;;;;;;;7.93;4.35;;;;;;;;;;4994365;28;20038;-86
2021/12/05 15:06:44;;;;;;;7.63;4.07;;;;;;;;;;4997106;28;20396;-86
2021/12/05 15:09:36;;;;;;;9.23;4.85;;;;;;;;;;4998743;28;20057;-84
2021/12/05 15:12:16;;;;;;;7.65;3.45;;;;;;;;;;4998866;28;20034;-85
2021/12/05 15:14:44;;;;;;;6.80;3.42;;;;;;;;;;5000775;28;20552;-85
2021/12/05 15:17:16;;;;;;;7.25;3.38;;;;;;;;;;4998293;28;20042;-84
2021/12/05 15:19:48;;;;;;;7.28;3.40;;;;;;;;;;4993937;28;20027;-81
2021/12/05 15:22:15;;;;;;;3.78;1.95;;;;;;;;;;4990711;28;20042;-84
2021/12/05 15:24:54;;;;;;;4.60;1.60;;;;;;;;;;4997999;28;20045;-85
2021/12/05 15:27:23;;;;;;;3.80;1.60;;;;;;;;;;4998790;28;20043;-78
2021/12/05 15:29:55;;;;;;;3.67;1.90;;;;;;;;;;4997913;28;20025;-85
2021/12/05 15:32:25;;;;;;;4.13;2.42;;;;;;;;;;5004811;28;20032;-83
2021/12/05 15:34:55;;;;;;;6.97;3.60;;;;;;;;;;5028144;28;20034;-84
2021/12/05 15:37:22;;;;;;;6.75;3.13;;;;;;;;;;5014429;28;20030;-81
2021/12/05 15:39:51;;;;;;;5.80;3.00;;;;;;;;;;5010749;28;20045;-83
2021/12/05 15:42:21;;;;;;;13.70;7.18;;;;;;;;;;5002649;28;20026;-80
2021/12/05 15:44:49;;;;;;;91.57;50.25;;;;;;;;;;4990989;28;20050;-84
2021/12/05 15:47:19;;;;;;;18.42;10.63;;;;;;;;;;4995992;28;20038;-84
2021/12/05 15:50:00;;;;;;;8.13;3.60;;;;;;;;;;4996076;28;20047;-80
2021/12/05 15:52:34;;;;;;;8.20;2.25;;;;;;;;;;4995554;28;20035;-85
2021/12/05 15:55:04;;;;;;;4.22;1.90;;;;;;;;;;4995166;28;20042;-85
2021/12/05 15:57:35;;;;;;;4.30;1.90;;;;;;;;;;4995144;28;20057;-80
2021/12/05 16:00:09;;;;;;;6.10;2.35;;;;;;;;;;4989036;28;20413;-79
2021/12/05 16:02:35;;;;;;;5.10;2.80;;;;;;;;;;4988646;28;20058;-82
2021/12/05 16:05:03;;;;;;;5.93;2.53;;;;;;;;;;4992312;28;20030;-81
2021/12/05 16:07:30;;;;;;;5.03;2.50;;;;;;;;;;4990662;28;20065;-79
2021/12/05 16:10:16;;;;;;;4.82;2.25;;;;;;;;;;4994249;28;20053;-82
2021/12/05 16:12:43;;;;;;;5.05;2.40;;;;;;;;;;4992984;28;20048;-82
2021/12/05 16:15:10;;;;;;;5.13;2.53;;;;;;;;;;4994937;28;20045;-81
2021/12/05 16:17:36;;;;;;;8.02;3.22;;;;;;;;;;4993137;28;20046;-83
2021/12/05 16:20:09;;;;;;;7.05;2.58;;;;;;;;;;4989227;28;20034;-79
2021/12/05 16:22:53;;;;;;;6.88;2.72;;;;;;;;;;4989200;28;20049;-83
2021/12/05 16:25:20;;;;;;;6.70;3.03;;;;;;;;;;4990168;28;20049;-83
2021/12/05 16:27:54;;;;;;;8.32;3.35;;;;;;;;;;4989323;28;20045;-85
2021/12/05 16:30:27;;;;;;;7.32;3.53;;;;;;;;;;4987524;28;20034;-85
2021/12/05 16:32:53;;;;;;;6.90;3.50;;;;;;;;;;4989776;28;20046;-86
2021/12/05 16:35:29;;;;;;;7.28;3.20;;;;;;;;;;4990357;28;20037;-81
2021/12/05 16:37:55;;;;;;;6.43;3.35;;;;;;;;;;4989049;28;20045;-85
2021/12/05 16:40:25;;;;;;;7.43;3.42;;;;;;;;;;4988846;28;20038;-82
2021/12/05 16:43:07;;;;;;;7.88;3.20;;;;;;;;;;4989834;28;20404;-82
2021/12/05 16:45:37;;;;;;;50.15;27.95;;;;;;;;;;4993480;28;20054;-83
2021/12/05 16:48:05;;;;;;;30.92;15.90;;;;;;;;;;5012867;28;20035;-81
2021/12/05 16:50:32;;;;;;;9.38;4.75;;;;;;;;;;4999213;28;20046;-82
2021/12/05 16:52:58;;;;;;;11.70;4.65;;;;;;;;;;4998437;28;20053;-82
2021/12/05 16:55:27;;;;;;;13.95;6.13;;;;;;;;;;4994476;28;20049;-68
2021/12/05 16:58:06;;;;;;;20.35;7.75;;;;;;;;;;4992992;28;20042;-68
2021/12/05 17:00:36;;;;;;;15.85;7.75;;;;;;;;;;5007622;28;20400;-83
2021/12/05 17:03:05;;;;;;;15.35;7.20;;;;;;;;;;4993941;28;20049;-83
2021/12/05 17:05:36;;;;;;;14.27;6.10;;;;;;;;;;4994980;28;20050;-84
2021/12/05 17:08:12;;;;;;;14.07;6.20;;;;;;;;;;5000115;28;20492;-83
2021/12/05 17:10:44;;;;;;;13.55;6.57;;;;;;;;;;4993981;28;20033;-83
2021/12/05 17:13:35;;;;;;;14.75;6.57;;;;;;;;;;4997734;28;20381;-83
2021/12/05 17:16:04;;;;;;;18.55;7.45;;;;;;;;;;4995350;28;20026;-83
2021/12/05 17:18:41;;;;;;;15.00;6.53;;;;;;;;;;4997572;28;20034;-81
2021/12/05 17:21:21;;;;;;;14.60;6.20;;;;;;;;;;4993078;28;20042;-79
2021/12/05 17:23:57;;;;;;;14.00;6.15;;;;;;;;;;4992584;28;20042;-84
2021/12/05 17:26:41;;;;;;;12.57;6.22;;;;;;;;;;4993246;28;20040;-83
2021/12/05 17:29:19;;;;;;;10.05;5.72;;;;;;;;;;4992997;28;20034;-85
2021/12/05 17:32:07;;;;;;;11.68;6.43;;;;;;;;;;4990050;28;20054;-84
2021/12/05 17:34:57;;;;;;;10.60;5.90;;;;;;;;;;4992186;28;20046;-83
2021/12/05 17:37:28;;;;;;;12.82;6.93;;;;;;;;;;4993722;28;20046;-84
2021/12/05 17:39:55;;;;;;;14.77;7.85;;;;;;;;;;4993546;28;20338;-80
2021/12/05 17:42:30;;;;;;;17.27;8.85;;;;;;;;;;4992534;28;20041;-83
2021/12/05 17:44:59;;;;;;;14.98;8.02;;;;;;;;;;4991344;28;20034;-85
2021/12/05 17:47:28;;;;;;;19.00;8.63;;;;;;;;;;4995096;28;20038;-85
2021/12/05 17:49:58;;;;;;;14.90;8.23;;;;;;;;;;5002844;28;20049;-81
2021/12/05 17:52:26;;;;;;;16.42;8.40;;;;;;;;;;5001671;28;20038;-84
2021/12/05 17:55:06;;;;;;;16.88;8.80;;;;;;;;;;4998580;28;20034;-83
2021/12/05 17:57:40;;;;;;;15.70;8.55;;;;;;;;;;4998355;28;20061;-82
2021/12/05 18:00:44;;;;;;;16.42;7.90;;;;;;;;;;4997890;28;20034;-83
2021/12/05 18:03:10;;;;;;;15.40;7.18;;;;;;;;;;4989677;28;20492;-77
2021/12/05 18:05:41;;;;;;;14.98;7.75;;;;;;;;;;4993008;28;20539;-77
2021/12/05 18:08:13;;;;;;;14.48;6.82;;;;;;;;;;4993391;28;20481;-77
2021/12/05 18:10:50;;;;;;;11.93;6.53;;;;;;;;;;4994341;28;20042;-80
2021/12/05 18:13:21;;;;;;;10.70;5.70;;;;;;;;;;4990070;28;20121;-77
2021/12/05 18:15:54;;;;;;;12.65;6.05;;;;;;;;;;4994017;28;20042;-79
2021/12/05 18:18:22;;;;;;;37.92;24.40;;;;;;;;;;4993610;28;20034;-78
2021/12/05 18:20:48;;;;;;;49.67;26.45;;;;;;;;;;4992503;28;20483;-78
2021/12/05 18:23:15;;;;;;;13.25;6.60;;;;;;;;;;4990967;28;20038;-79
2021/12/05 18:25:42;;;;;;;9.05;5.50;;;;;;;;;;4991210;28;20038;-79
2021/12/05 18:28:09;;;;;;;8.48;5.05;;;;;;;;;;4991517;28;20046;-78
2021/12/05 18:30:35;;;;;;;9.50;5.50;;;;;;;;;;4991390;28;20045;-78
2021/12/05 18:33:04;;;;;;;9.40;5.30;;;;;;;;;;4991851;28;20053;-79
2021/12/05 18:35:32;;;;;;;11.18;4.57;;;;;;;;;;4992254;28;20050;-77
2021/12/05 18:38:06;;;;;;;8.25;4.85;;;;;;;;;;4992196;28;20374;-78
2021/12/05 18:40:34;;;;;;;8.95;5.28;;;;;;;;;;4991514;28;20038;-76
2021/12/05 18:43:00;;;;;;;6.82;4.38;;;;;;;;;;4989785;28;20049;-79
2021/12/05 18:45:30;;;;;;;9.18;4.95;;;;;;;;;;4992526;28;20496;-79
2021/12/05 18:47:56;;;;;;;9.27;4.90;;;;;;;;;;4993117;28;20042;-78
2021/12/05 18:50:23;;;;;;;11.57;6.00;;;;;;;;;;4994317;28;20044;-79
2021/12/05 18:52:49;;;;;;;9.82;5.88;;;;;;;;;;4994736;28;20038;-78
2021/12/05 18:55:18;;;;;;;10.73;5.88;;;;;;;;;;4993567;28;20046;-79
2021/12/05 18:57:45;;;;;;;18.60;7.22;;;;;;;;;;4991356;28;20034;-78
2021/12/05 19:00:27;;;;;;;10.23;5.95;;;;;;;;;;4993668;28;20026;-81
2021/12/05 19:06:07;;;;;;;8.65;5.30;;;;;;;;;;4992060;28;20279;-80
2021/12/05 19:09:01;;;;;;;10.45;5.88;;;;;;;;;;4995426;28;20034;-80
2021/12/05 19:14:04;;;;;;;12.48;6.40;;;;;;;;;;4992412;28;20042;-81
2021/12/05 19:16:29;;;;;;;11.57;6.75;;;;;;;;;;4990430;28;20381;-81
2021/12/05 19:18:56;;;;;;;10.90;6.32;;;;;;;;;;4989727;28;20065;-82
2021/12/05 19:21:21;;;;;;;29.42;17.02;;;;;;;;;;4990917;28;20122;-82
2021/12/05 19:23:47;;;;;;;38.40;21.23;;;;;;;;;;4990311;28;20050;-81
2021/12/05 19:26:13;;;;;;;23.77;13.43;;;;;;;;;;4991029;28;20038;-84
2021/12/05 19:28:39;;;;;;;15.25;8.15;;;;;;;;;;4992182;28;20105;-87
2021/12/05 19:31:06;;;;;;;12.60;6.70;;;;;;;;;;4992593;28;20042;-85
2021/12/05 19:33:32;;;;;;;17.17;7.80;;;;;;;;;;4991491;28;20038;-83
2021/12/05 19:36:00;;;;;;;13.90;7.93;;;;;;;;;;4991062;28;20053;-85
2021/12/05 19:38:27;;;;;;;15.75;7.80;;;;;;;;;;4992734;28;20038;-84
2021/12/05 19:40:59;;;;;;;12.30;7.35;;;;;;;;;;4990821;28;20373;-88
2021/12/05 19:43:28;;;;;;;15.60;7.22;;;;;;;;;;4987199;28;20037;-87
2021/12/05 19:45:56;;;;;;;16.35;8.00;;;;;;;;;;4994559;28;20499;-86
2021/12/05 19:48:22;;;;;;;15.52;8.32;;;;;;;;;;4997239;28;20042;-86
2021/12/05 19:50:49;;;;;;;12.57;7.57;;;;;;;;;;4994326;28;20073;-88
2021/12/05 19:53:16;;;;;;;11.75;7.88;;;;;;;;;;4994767;28;20030;-88
2021/12/05 19:55:43;;;;;;;13.88;8.02;;;;;;;;;;4995462;28;20037;-88
2021/12/05 19:58:10;;;;;;;15.65;8.05;;;;;;;;;;4993562;28;20404;-81
2021/12/05 20:00:37;;;;;;;14.10;8.02;;;;;;;;;;4991902;28;20034;-81
2021/12/05 20:03:04;;;;;;;10.32;6.15;;;;;;;;;;4992119;28;20042;-83
2021/12/05 20:05:32;;;;;;;12.43;6.97;;;;;;;;;;4993946;28;20042;-85
2021/12/05 20:07:59;;;;;;;8.82;5.97;;;;;;;;;;4992571;28;20049;-88
2021/12/05 20:10:29;;;;;;;12.40;6.28;;;;;;;;;;4995264;28;20045;-83
2021/12/05 20:12:57;;;;;;;12.23;6.30;;;;;;;;;;4993341;28;20042;-82
2021/12/05 20:15:24;;;;;;;9.98;6.05;;;;;;;;;;4993543;28;20034;-85
2021/12/05 20:17:50;;;;;;;10.20;5.93;;;;;;;;;;4990718;28;20022;-84
2021/12/05 20:20:19;;;;;;;11.90;5.82;;;;;;;;;;4989967;28;20046;-85
2021/12/05 20:22:45;;;;;;;10.15;5.32;;;;;;;;;;4991315;28;20038;-80
2021/12/05 20:25:13;;;;;;;12.18;5.53;;;;;;;;;;4990504;28;20152;-78